createdAt,value
2023-03-22T00:02:16.385Z,9.70
2023-03-22T00:04:44.433Z,9.70
2023-03-22T00:07:13.882Z,9.60
2023-03-22T00:09:41.945Z,9.50
2023-03-22T00:12:10.052Z,9.50
2023-03-22T00:14:38.210Z,9.50
2023-03-22T00:17:06.252Z,9.50
2023-03-22T00:19:34.425Z,9.50
2023-03-22T00:22:03.548Z,9.50
2023-03-22T00:24:33.043Z,9.50
2023-03-22T00:27:01.870Z,9.50
2023-03-22T00:29:29.909Z,9.60
2023-03-22T00:31:57.940Z,9.50
2023-03-22T00:34:27.087Z,9.50
2023-03-22T00:36:56.187Z,9.50
2023-03-22T00:39:24.270Z,9.40
2023-03-22T00:41:53.661Z,9.40
2023-03-22T00:44:21.725Z,9.50
2023-03-22T00:46:49.753Z,9.50
2023-03-22T00:49:18.856Z,9.50
2023-03-22T00:51:47.158Z,9.60
2023-03-22T00:54:16.953Z,9.60
2023-03-22T00:56:46.162Z,9.50
2023-03-22T00:59:17.543Z,9.60
2023-03-22T01:01:45.635Z,9.60
2023-03-22T01:04:15.442Z,9.70
2023-03-22T01:06:43.549Z,9.60
2023-03-22T01:09:14.751Z,9.50
2023-03-22T01:11:43.272Z,9.40
2023-03-22T01:14:13.718Z,9.40
2023-03-22T01:16:43.230Z,9.30
2023-03-22T01:19:11.646Z,9.40
2023-03-22T01:21:39.772Z,9.40
2023-03-22T01:24:08.278Z,9.40
2023-03-22T01:26:37.590Z,9.50
2023-03-22T01:29:06.218Z,9.60
2023-03-22T01:31:34.395Z,9.60
2023-03-22T01:34:10.906Z,9.50
2023-03-22T01:36:39.606Z,9.50
2023-03-22T01:39:08.161Z,9.40
2023-03-22T01:41:37.665Z,9.40
2023-03-22T01:44:15.460Z,9.50
2023-03-22T01:46:44.754Z,9.60
2023-03-22T01:49:17.779Z,9.60
2023-03-22T01:51:48.345Z,9.60
2023-03-22T01:54:29.300Z,9.60
2023-03-22T01:56:57.746Z,9.60
2023-03-22T01:59:34.586Z,9.60
2023-03-22T02:02:19.246Z,9.70
2023-03-22T02:04:57.825Z,9.60
2023-03-22T02:07:28.142Z,9.60
2023-03-22T02:09:57.877Z,9.50
2023-03-22T02:12:42.264Z,9.60
2023-03-22T02:15:30.896Z,9.60
2023-03-22T02:18:41.998Z,9.60
2023-03-22T02:21:35.924Z,9.50
2023-03-22T02:24:35.038Z,9.50
2023-03-22T02:27:28.211Z,9.40
2023-03-22T02:30:09.117Z,9.40
2023-03-22T02:33:00.149Z,9.40
2023-03-22T02:36:19.827Z,9.40
2023-03-22T02:39:19.529Z,9.40
2023-03-22T02:41:59.872Z,9.40
2023-03-22T02:44:35.549Z,9.40
2023-03-22T02:47:06.506Z,9.30
2023-03-22T02:49:38.512Z,9.20
2023-03-22T02:52:17.237Z,9.20
2023-03-22T02:54:53.966Z,9.20
2023-03-22T02:57:29.660Z,9.20
2023-03-22T02:59:59.276Z,9.30
2023-03-22T03:02:29.101Z,9.30
2023-03-22T03:04:57.793Z,9.30
2023-03-22T03:07:29.791Z,9.20
2023-03-22T03:09:59.754Z,9.20
2023-03-22T03:12:30.205Z,9.30
2023-03-22T03:14:58.483Z,9.30
2023-03-22T03:17:41.660Z,9.20
2023-03-22T03:20:30.012Z,9.20
2023-03-22T03:23:13.609Z,9.10
2023-03-22T03:25:50.038Z,9.20
2023-03-22T03:28:29.937Z,9.10
2023-03-22T03:31:03.253Z,9.10
2023-03-22T03:33:35.554Z,9.10
2023-03-22T03:36:10.732Z,9.10
2023-03-22T03:38:45.042Z,9.10
2023-03-22T03:41:18.511Z,9.10
2023-03-22T03:43:48.986Z,9.10
2023-03-22T03:46:17.490Z,9.00
2023-03-22T03:48:49.276Z,9.00
2023-03-22T03:51:17.654Z,9.10
2023-03-22T03:53:46.049Z,8.90
2023-03-22T03:56:15.632Z,9.00
2023-03-22T03:58:47.282Z,9.10
2023-03-22T04:01:15.983Z,9.10
2023-03-22T04:03:46.529Z,9.10
2023-03-22T04:06:34.583Z,9.10
2023-03-22T04:09:08.113Z,9.00
2023-03-22T04:11:42.677Z,9.00
2023-03-22T04:14:10.912Z,9.10
2023-03-22T04:16:39.633Z,9.10
2023-03-22T04:19:11.714Z,9.10
2023-03-22T04:21:40.302Z,9.10
2023-03-22T04:24:09.538Z,9.10
2023-03-22T04:26:42.507Z,9.00
2023-03-22T04:29:24.608Z,8.90
2023-03-22T04:31:58.319Z,8.90
2023-03-22T04:34:38.782Z,8.80
2023-03-22T04:37:12.471Z,8.90
2023-03-22T04:39:50.269Z,8.90
2023-03-22T04:42:36.638Z,8.80
2023-03-22T04:45:15.064Z,8.80
2023-03-22T04:47:47.199Z,8.90
2023-03-22T04:50:15.323Z,8.80
2023-03-22T04:52:52.096Z,8.80
2023-03-22T04:55:20.825Z,8.80
2023-03-22T04:57:51.118Z,8.70
2023-03-22T05:00:21.702Z,8.70
2023-03-22T05:02:50.736Z,8.70
2023-03-22T05:05:27.524Z,8.70
2023-03-22T05:07:56.283Z,8.60
2023-03-22T05:10:25.283Z,8.70
2023-03-22T05:12:55.517Z,8.60
2023-03-22T05:15:27.412Z,8.60
2023-03-22T05:17:55.760Z,8.60
2023-03-22T05:20:24.928Z,8.50
2023-03-22T05:23:06.055Z,8.60
2023-03-22T05:25:35.002Z,8.70
2023-03-22T05:28:05.091Z,8.70
2023-03-22T05:30:43.525Z,8.70
2023-03-22T05:33:24.957Z,8.60
2023-03-22T05:35:56.954Z,8.70
2023-03-22T05:38:26.505Z,8.70
2023-03-22T05:40:58.156Z,8.70
2023-03-22T05:43:28.031Z,8.70
2023-03-22T05:45:56.329Z,8.70
2023-03-22T05:48:42.579Z,8.70
2023-03-22T05:51:17.638Z,8.60
2023-03-22T05:53:48.225Z,8.70
2023-03-22T05:56:21.780Z,8.70
2023-03-22T05:58:52.265Z,8.70
2023-03-22T06:01:23.060Z,8.80
2023-03-22T06:04:11.585Z,8.70
2023-03-22T06:06:58.251Z,8.80
2023-03-22T06:09:39.382Z,8.80
2023-03-22T06:12:10.985Z,8.80
2023-03-22T06:14:40.803Z,8.80
2023-03-22T06:17:17.086Z,8.80
2023-03-22T06:19:46.209Z,8.90
2023-03-22T06:22:15.938Z,8.80
2023-03-22T06:24:45.077Z,8.90
2023-03-22T06:27:19.383Z,8.80
2023-03-22T06:29:50.951Z,8.90
2023-03-22T06:32:23.693Z,9.00
2023-03-22T06:34:51.742Z,9.00
2023-03-22T06:37:21.796Z,9.10
2023-03-22T06:39:51.272Z,9.10
2023-03-22T06:42:21.472Z,9.20
2023-03-22T06:45:00.861Z,9.20
2023-03-22T06:47:32.690Z,9.20
2023-03-22T06:50:03.511Z,9.20
2023-03-22T06:52:57.944Z,9.30
2023-03-22T06:55:26.209Z,9.40
2023-03-22T06:57:54.319Z,9.40
2023-03-22T07:00:24.120Z,9.50
2023-03-22T07:02:52.820Z,9.50
2023-03-22T07:05:32.459Z,9.60
2023-03-22T07:08:00.708Z,9.60
2023-03-22T07:10:28.932Z,9.70
2023-03-22T07:12:57.567Z,9.70
2023-03-22T07:15:27.049Z,9.70
2023-03-22T07:18:01.393Z,9.70
2023-03-22T07:20:32.904Z,9.70
2023-03-22T07:23:01.338Z,9.80
2023-03-22T07:25:32.652Z,9.80
2023-03-22T07:28:17.333Z,9.90
2023-03-22T07:30:46.777Z,10.00
2023-03-22T07:33:15.386Z,10.00
2023-03-22T07:35:44.669Z,10.10
2023-03-22T07:38:13.046Z,10.10
2023-03-22T07:40:42.289Z,10.30
2023-03-22T07:43:13.026Z,10.30
2023-03-22T07:45:56.194Z,10.40
2023-03-22T07:49:02.402Z,10.50
2023-03-22T07:51:48.982Z,10.60
2023-03-22T07:54:32.129Z,10.70
2023-03-22T07:57:01.009Z,10.80
2023-03-22T07:59:29.253Z,10.80
2023-03-22T08:01:59.087Z,10.70
2023-03-22T08:04:39.754Z,10.80
2023-03-22T08:07:26.306Z,10.80
2023-03-22T08:09:54.607Z,10.80
2023-03-22T08:12:22.673Z,10.90
2023-03-22T08:14:59.644Z,10.90
2023-03-22T08:17:30.667Z,11.00
2023-03-22T08:19:58.707Z,11.10
2023-03-22T08:22:42.384Z,11.10
2023-03-22T08:25:23.426Z,11.20
2023-03-22T08:27:52.949Z,11.30
2023-03-22T08:30:22.339Z,11.30
2023-03-22T08:32:51.812Z,11.30
2023-03-22T08:35:20.621Z,11.30
2023-03-22T08:37:48.751Z,11.30
2023-03-22T08:40:17.282Z,11.30
2023-03-22T08:42:50.744Z,11.30
2023-03-22T08:45:19.346Z,11.30
2023-03-22T08:47:59.954Z,11.40
2023-03-22T08:50:28.811Z,11.30
2023-03-22T08:53:07.451Z,11.30
2023-03-22T08:55:37.336Z,11.30
2023-03-22T08:58:14.888Z,11.20
2023-03-22T09:00:48.885Z,11.30
2023-03-22T09:03:34.211Z,11.30
2023-03-22T09:06:02.904Z,11.30
2023-03-22T09:08:36.063Z,11.30
2023-03-22T09:11:09.958Z,11.30
2023-03-22T09:13:38.864Z,11.30
2023-03-22T09:16:08.831Z,11.40
2023-03-22T09:18:39.431Z,11.40
2023-03-22T09:21:13.472Z,11.40
2023-03-22T09:23:54.271Z,11.50
2023-03-22T09:26:28.744Z,11.60
2023-03-22T09:28:56.964Z,11.60
2023-03-22T09:31:25.142Z,11.70
2023-03-22T09:34:05.880Z,11.80
2023-03-22T09:36:34.284Z,11.80
2023-03-22T09:39:06.566Z,11.90
2023-03-22T09:41:39.674Z,11.90
2023-03-22T09:44:13.388Z,11.90
2023-03-22T09:46:44.561Z,11.90
2023-03-22T09:49:17.505Z,11.90
2023-03-22T09:51:47.543Z,11.90
2023-03-22T09:54:19.600Z,11.90
2023-03-22T09:56:51.787Z,11.90
2023-03-22T09:59:27.102Z,11.90
2023-03-22T10:02:00.353Z,12.00
2023-03-22T10:04:51.887Z,11.90
2023-03-22T10:07:27.469Z,11.90
2023-03-22T10:10:06.688Z,11.90
2023-03-22T10:12:39.953Z,11.90
2023-03-22T10:15:14.867Z,11.90
2023-03-22T10:17:47.430Z,11.90
2023-03-22T10:20:28.601Z,11.80
2023-03-22T10:23:00.020Z,11.80
2023-03-22T10:25:36.527Z,11.90
2023-03-22T10:28:16.594Z,11.90
2023-03-22T10:30:51.011Z,11.90
2023-03-22T10:33:28.843Z,11.90
2023-03-22T10:35:58.597Z,11.90
2023-03-22T10:38:28.816Z,11.90
2023-03-22T10:40:59.656Z,12.00
2023-03-22T10:43:33.019Z,11.90
2023-03-22T10:46:03.507Z,12.00
2023-03-22T10:48:34.961Z,12.00
2023-03-22T10:51:05.268Z,12.00
2023-03-22T10:53:39.515Z,12.00
2023-03-22T10:56:13.980Z,12.20
2023-03-22T10:58:42.376Z,12.20
2023-03-22T11:01:12.103Z,12.20
2023-03-22T11:03:42.636Z,12.20
2023-03-22T11:06:13.851Z,12.30
2023-03-22T11:08:45.441Z,12.40
2023-03-22T11:11:23.338Z,12.40
2023-03-22T11:13:59.890Z,12.40
2023-03-22T11:16:28.929Z,12.40
2023-03-22T11:18:58.894Z,12.50
2023-03-22T11:21:32.080Z,12.50
2023-03-22T11:24:03.774Z,12.40
2023-03-22T11:26:38.828Z,12.40
2023-03-22T11:29:17.155Z,12.40
2023-03-22T11:31:55.137Z,12.30
2023-03-22T11:34:27.298Z,12.30
2023-03-22T11:37:00.819Z,12.30
2023-03-22T11:39:30.657Z,12.30
2023-03-22T11:42:01.507Z,12.30
2023-03-22T11:44:34.838Z,12.40
2023-03-22T11:47:05.243Z,12.40
2023-03-22T11:49:41.173Z,12.40
2023-03-22T11:52:15.937Z,12.40
2023-03-22T11:54:45.701Z,12.40
2023-03-22T11:57:18.525Z,12.40
2023-03-22T11:59:49.691Z,12.50
2023-03-22T12:02:23.690Z,12.50
2023-03-22T12:05:00.561Z,12.50
2023-03-22T12:07:32.642Z,12.50
2023-03-22T12:10:06.085Z,12.60
2023-03-22T12:12:39.351Z,12.60
2023-03-22T12:15:14.562Z,12.50
2023-03-22T12:17:50.074Z,12.60
2023-03-22T12:20:28.203Z,12.60
2023-03-22T12:22:58.370Z,12.60
2023-03-22T12:25:30.895Z,12.60
2023-03-22T12:28:03.535Z,12.60
2023-03-22T12:30:35.017Z,12.70
2023-03-22T12:33:06.737Z,12.70
2023-03-22T12:35:39.895Z,12.80
2023-03-22T12:38:24.809Z,12.90
2023-03-22T12:40:55.370Z,12.90
2023-03-22T12:43:39.216Z,12.90
2023-03-22T12:46:11.691Z,13.00
2023-03-22T12:48:46.347Z,12.90
2023-03-22T12:51:16.036Z,12.90
2023-03-22T12:53:47.950Z,12.90
2023-03-22T12:56:20.343Z,13.00
2023-03-22T12:58:52.151Z,12.90
2023-03-22T13:01:31.412Z,12.90
2023-03-22T13:04:00.021Z,12.90
2023-03-22T13:06:35.041Z,12.90
2023-03-22T13:09:15.794Z,12.90
2023-03-22T13:11:45.431Z,12.90
2023-03-22T13:14:32.221Z,12.90
2023-03-22T13:17:01.469Z,12.80
2023-03-22T13:19:36.149Z,12.80
2023-03-22T13:22:22.538Z,12.80
2023-03-22T13:25:14.479Z,12.80
2023-03-22T13:27:52.360Z,12.80
2023-03-22T13:30:25.832Z,12.80
2023-03-22T13:32:56.729Z,12.80
2023-03-22T13:35:28.181Z,12.90
2023-03-22T13:38:03.699Z,12.90
2023-03-22T13:40:37.606Z,12.90
2023-03-22T13:43:21.773Z,12.90
2023-03-22T13:46:10.422Z,12.90
2023-03-22T13:48:54.594Z,13.00
2023-03-22T13:51:30.216Z,13.00
2023-03-22T13:54:03.411Z,13.00
2023-03-22T13:56:56.060Z,13.00
2023-03-22T13:59:32.417Z,13.00
2023-03-22T14:02:04.742Z,13.10
2023-03-22T14:04:39.420Z,13.00
2023-03-22T14:07:20.723Z,13.10
2023-03-22T14:09:52.349Z,13.10
2023-03-22T14:12:29.454Z,13.10
2023-03-22T14:15:02.327Z,13.00
2023-03-22T14:17:36.691Z,13.00
2023-03-22T14:20:10.507Z,13.00
